createdAt,value
2023-02-26T00:01:50.892Z,72.70
2023-02-26T00:04:19.752Z,72.61
2023-02-26T00:06:55.787Z,72.58
2023-02-26T00:09:26.572Z,72.48
2023-02-26T00:11:55.724Z,72.43
2023-02-26T00:14:24.902Z,72.39
2023-02-26T00:17:31.106Z,72.29
2023-02-26T00:20:02.565Z,72.23
2023-02-26T00:22:31.737Z,72.10
2023-02-26T00:25:00.918Z,72.04
2023-02-26T00:27:29.196Z,71.92
2023-02-26T00:29:57.684Z,71.82
2023-02-26T00:32:26.054Z,71.66
2023-02-26T00:34:54.394Z,71.33
2023-02-26T00:37:44.305Z,71.21
2023-02-26T00:40:34.291Z,70.81
2023-02-26T00:43:06.459Z,70.60
2023-02-26T00:45:36.315Z,70.52
2023-02-26T00:48:07.281Z,70.44
2023-02-26T00:50:36.007Z,70.46
2023-02-26T00:53:17.396Z,70.50
2023-02-26T00:55:45.970Z,70.53
2023-02-26T00:58:14.046Z,70.58
2023-02-26T01:00:42.345Z,70.69
2023-02-26T01:03:12.271Z,70.67
2023-02-26T01:05:41.268Z,70.80
2023-02-26T01:08:17.656Z,70.72
2023-02-26T01:10:46.842Z,70.91
2023-02-26T01:13:15.380Z,70.93
2023-02-26T01:15:52.498Z,71.05
2023-02-26T01:18:26.599Z,71.04
2023-02-26T01:20:57.381Z,70.98
2023-02-26T01:23:26.489Z,70.85
2023-02-26T01:26:04.184Z,70.76
2023-02-26T01:28:32.883Z,70.63
2023-02-26T01:31:05.652Z,70.58
2023-02-26T01:33:39.567Z,70.53
2023-02-26T01:36:09.594Z,70.58
2023-02-26T01:39:04.668Z,70.58
2023-02-26T01:41:47.563Z,70.61
2023-02-26T01:44:41.324Z,70.55
2023-02-26T01:47:23.934Z,70.51
2023-02-26T01:49:52.309Z,70.37
2023-02-26T01:52:32.770Z,70.47
2023-02-26T01:55:05.592Z,70.55
2023-02-26T01:57:33.763Z,70.51
2023-02-26T02:00:06.755Z,70.48
2023-02-26T02:02:42.132Z,70.50
2023-02-26T02:05:18.678Z,70.52
2023-02-26T02:07:48.179Z,70.50
2023-02-26T02:10:16.634Z,70.51
2023-02-26T02:13:01.984Z,70.48
2023-02-26T02:15:54.170Z,70.52
2023-02-26T02:19:03.890Z,70.56
2023-02-26T02:21:50.908Z,70.57
2023-02-26T02:24:49.937Z,70.61
2023-02-26T02:27:40.536Z,70.62
2023-02-26T02:30:46.580Z,70.51
2023-02-26T02:33:16.564Z,70.47
2023-02-26T02:35:46.441Z,70.43
2023-02-26T02:38:16.448Z,70.34
2023-02-26T02:40:50.209Z,70.24
2023-02-26T02:43:28.077Z,70.03
2023-02-26T02:46:03.365Z,70.07
2023-02-26T02:48:36.000Z,69.98
2023-02-26T02:51:14.979Z,69.96
2023-02-26T02:53:50.965Z,69.93
2023-02-26T02:56:29.702Z,69.85
2023-02-26T02:59:25.436Z,69.88
2023-02-26T03:02:13.729Z,69.92
2023-02-26T03:04:42.977Z,69.82
2023-02-26T03:07:11.871Z,69.80
2023-02-26T03:09:40.148Z,69.83
2023-02-26T03:12:08.354Z,69.76
2023-02-26T03:14:40.406Z,69.81
2023-02-26T03:17:17.708Z,69.90
2023-02-26T03:19:49.137Z,69.95
2023-02-26T03:22:30.396Z,69.87
2023-02-26T03:25:05.986Z,69.91
2023-02-26T03:27:46.586Z,69.86
2023-02-26T03:30:59.496Z,69.93
2023-02-26T03:33:51.878Z,69.89
2023-02-26T03:36:23.713Z,69.87
2023-02-26T03:39:07.113Z,69.95
2023-02-26T03:41:47.029Z,69.95
2023-02-26T03:44:33.969Z,70.01
2023-02-26T03:47:05.292Z,70.11
2023-02-26T03:49:36.888Z,70.20
2023-02-26T03:52:05.130Z,70.30
2023-02-26T03:55:09.992Z,70.45
2023-02-26T03:58:02.217Z,70.40
2023-02-26T04:00:33.481Z,70.46
2023-02-26T04:03:08.326Z,70.49
2023-02-26T04:05:39.550Z,70.58
2023-02-26T04:08:09.386Z,70.81
2023-02-26T04:10:44.288Z,71.03
2023-02-26T04:13:15.058Z,71.08
2023-02-26T04:15:43.319Z,71.18
2023-02-26T04:18:11.534Z,71.18
2023-02-26T04:20:39.562Z,71.15
2023-02-26T04:23:07.905Z,71.24
2023-02-26T04:25:37.530Z,71.20
2023-02-26T04:28:05.987Z,71.16
2023-02-26T04:30:34.988Z,71.16
2023-02-26T04:33:06.355Z,71.08
2023-02-26T04:35:34.551Z,71.11
2023-02-26T04:38:02.686Z,71.01
2023-02-26T04:40:31.914Z,70.94
2023-02-26T04:43:00.619Z,70.92
2023-02-26T04:45:29.524Z,70.91
2023-02-26T04:48:03.017Z,70.83
2023-02-26T04:50:34.343Z,70.82
2023-02-26T04:53:02.413Z,70.88
2023-02-26T04:55:30.487Z,70.81
2023-02-26T04:58:02.732Z,70.80
2023-02-26T05:00:31.821Z,70.76
2023-02-26T05:02:59.924Z,70.73
2023-02-26T05:05:27.960Z,70.64
2023-02-26T05:08:01.795Z,70.74
2023-02-26T05:10:30.178Z,70.57
2023-02-26T05:12:58.231Z,70.62
2023-02-26T05:15:26.382Z,70.55
2023-02-26T05:17:54.904Z,70.39
2023-02-26T05:20:23.091Z,70.31
2023-02-26T05:22:51.865Z,70.17
2023-02-26T05:25:20.376Z,69.97
2023-02-26T05:27:48.625Z,69.98
2023-02-26T05:30:16.924Z,69.91
2023-02-26T05:32:45.427Z,69.82
2023-02-26T05:35:13.812Z,69.65
2023-02-26T05:37:42.112Z,69.61
2023-02-26T05:40:11.402Z,69.42
2023-02-26T05:42:40.877Z,69.29
2023-02-26T05:45:12.098Z,69.20
2023-02-26T05:47:40.370Z,69.10
2023-02-26T05:50:10.390Z,68.90
2023-02-26T05:52:39.152Z,68.85
2023-02-26T05:55:13.778Z,68.79
2023-02-26T05:57:45.644Z,68.80
2023-02-26T06:00:14.440Z,68.75
2023-02-26T06:02:43.566Z,68.68
2023-02-26T06:05:11.753Z,68.56
2023-02-26T06:07:42.375Z,68.53
2023-02-26T06:10:11.372Z,68.57
2023-02-26T06:12:41.174Z,68.44
2023-02-26T06:15:10.540Z,68.38
2023-02-26T06:17:40.862Z,68.35
2023-02-26T06:20:17.197Z,68.32
2023-02-26T06:22:45.287Z,68.46
2023-02-26T06:25:13.519Z,68.49
2023-02-26T06:27:41.927Z,68.34
2023-02-26T06:30:11.045Z,68.27
2023-02-26T06:32:39.856Z,68.09
2023-02-26T06:35:08.663Z,68.00
2023-02-26T06:37:41.558Z,67.74
2023-02-26T06:40:10.902Z,67.73
2023-02-26T06:42:39.097Z,67.71
2023-02-26T06:45:07.862Z,67.49
2023-02-26T06:47:36.080Z,67.41
2023-02-26T06:50:05.322Z,67.38
2023-02-26T06:52:35.315Z,67.36
2023-02-26T06:55:04.610Z,67.28
2023-02-26T06:57:33.265Z,67.15
2023-02-26T07:00:01.395Z,67.09
2023-02-26T07:02:29.925Z,67.13
2023-02-26T07:04:58.266Z,67.10
2023-02-26T07:07:26.532Z,66.96
2023-02-26T07:09:54.666Z,66.81
2023-02-26T07:12:22.744Z,66.73
2023-02-26T07:14:50.803Z,66.58
2023-02-26T07:17:21.917Z,66.49
2023-02-26T07:19:51.545Z,66.43
2023-02-26T07:22:21.861Z,66.39
2023-02-26T07:24:51.412Z,66.23
2023-02-26T07:27:19.760Z,66.09
2023-02-26T07:29:49.828Z,65.92
2023-02-26T07:32:18.244Z,65.84
2023-02-26T07:34:46.361Z,65.73
2023-02-26T07:37:14.817Z,65.47
2023-02-26T07:39:43.315Z,65.26
2023-02-26T07:42:12.219Z,65.04
2023-02-26T07:44:43.876Z,64.73
2023-02-26T07:47:12.235Z,64.69
2023-02-26T07:49:40.396Z,64.39
2023-02-26T07:52:15.599Z,64.23
2023-02-26T07:54:50.335Z,63.97
2023-02-26T07:57:19.222Z,63.76
2023-02-26T07:59:47.583Z,63.80
2023-02-26T08:02:17.081Z,63.73
2023-02-26T08:04:45.378Z,63.67
2023-02-26T08:07:13.668Z,63.41
2023-02-26T08:09:42.319Z,63.20
2023-02-26T08:12:10.885Z,63.10
2023-02-26T08:14:42.973Z,63.04
2023-02-26T08:17:11.729Z,62.80
2023-02-26T08:19:40.673Z,62.78
2023-02-26T08:22:08.921Z,62.90
2023-02-26T08:24:36.924Z,62.82
2023-02-26T08:27:07.457Z,62.76
2023-02-26T08:29:39.824Z,62.51
2023-02-26T08:32:08.314Z,62.31
2023-02-26T08:34:37.426Z,62.27
2023-02-26T08:37:05.716Z,62.20
2023-02-26T08:39:38.475Z,62.16
2023-02-26T08:42:07.485Z,62.03
2023-02-26T08:44:38.290Z,61.73
2023-02-26T08:47:06.369Z,61.50
2023-02-26T08:49:35.111Z,61.57
2023-02-26T08:52:03.454Z,61.43
2023-02-26T08:54:33.902Z,61.24
2023-02-26T08:57:02.025Z,61.23
2023-02-26T08:59:30.173Z,61.22
2023-02-26T09:01:58.405Z,60.96
2023-02-26T09:04:28.219Z,60.75
2023-02-26T09:06:57.978Z,60.56
2023-02-26T09:09:26.052Z,60.19
2023-02-26T09:11:54.172Z,59.93
2023-02-26T09:14:22.540Z,59.96
2023-02-26T09:16:53.314Z,60.12
2023-02-26T09:19:21.748Z,59.85
2023-02-26T09:21:50.440Z,59.85
2023-02-26T09:24:23.617Z,59.79
2023-02-26T09:26:51.905Z,59.64
2023-02-26T09:29:20.630Z,59.54
2023-02-26T09:31:48.851Z,59.49
2023-02-26T09:34:20.764Z,59.66
2023-02-26T09:36:49.373Z,59.58
2023-02-26T09:39:17.487Z,59.44
2023-02-26T09:41:50.593Z,59.19
2023-02-26T09:44:23.596Z,59.29
2023-02-26T09:47:15.809Z,59.38
2023-02-26T09:49:56.115Z,59.17
2023-02-26T09:52:38.241Z,58.71
2023-02-26T09:55:31.217Z,58.55
2023-02-26T09:58:01.453Z,58.60
2023-02-26T10:00:44.604Z,58.52
2023-02-26T10:03:30.788Z,58.39
2023-02-26T10:06:22.397Z,58.29
2023-02-26T10:09:01.377Z,58.07
2023-02-26T10:11:34.728Z,57.95
2023-02-26T10:14:05.285Z,57.91
2023-02-26T10:16:36.333Z,57.66
2023-02-26T10:19:09.049Z,57.35
2023-02-26T10:21:54.786Z,57.03
2023-02-26T10:24:49.177Z,56.77
2023-02-26T10:27:56.034Z,56.56
2023-02-26T10:30:40.138Z,56.29
2023-02-26T10:33:25.312Z,56.20
2023-02-26T10:35:55.053Z,55.93
2023-02-26T10:38:25.760Z,56.09
2023-02-26T10:40:59.755Z,56.09
2023-02-26T10:43:33.499Z,55.98
2023-02-26T10:46:17.864Z,56.17
2023-02-26T10:49:04.392Z,56.17
2023-02-26T10:51:36.475Z,56.02
2023-02-26T10:54:21.601Z,55.87
2023-02-26T10:56:49.826Z,56.08
2023-02-26T10:59:21.626Z,56.62
2023-02-26T11:01:51.197Z,56.88
2023-02-26T11:04:24.196Z,56.78
2023-02-26T11:06:58.050Z,56.80
2023-02-26T11:09:29.165Z,56.77
2023-02-26T11:12:06.903Z,56.61
2023-02-26T11:14:36.682Z,56.52
2023-02-26T11:17:10.679Z,56.70
2023-02-26T11:19:41.740Z,56.81
2023-02-26T11:22:12.751Z,56.65
2023-02-26T11:24:47.249Z,56.68
2023-02-26T11:27:18.610Z,56.59
2023-02-26T11:29:48.738Z,56.61
2023-02-26T11:32:30.341Z,56.47
2023-02-26T11:35:08.523Z,56.63
2023-02-26T11:37:41.493Z,56.82
2023-02-26T11:40:15.308Z,56.74
2023-02-26T11:42:57.517Z,56.71
2023-02-26T11:45:25.916Z,56.75
2023-02-26T11:48:06.409Z,56.10
2023-02-26T11:50:44.131Z,55.45
2023-02-26T11:53:23.030Z,55.23
2023-02-26T11:56:34.434Z,55.14
2023-02-26T11:59:24.952Z,55.48
2023-02-26T12:01:55.586Z,55.73
2023-02-26T12:04:32.039Z,56.10
2023-02-26T12:07:00.269Z,56.17
2023-02-26T12:09:31.080Z,56.06
2023-02-26T12:12:10.389Z,55.88
2023-02-26T12:14:39.623Z,55.75
2023-02-26T12:17:38.660Z,55.78
2023-02-26T12:20:17.841Z,55.75
2023-02-26T12:23:08.412Z,55.45
2023-02-26T12:25:49.765Z,55.50
2023-02-26T12:28:43.472Z,55.53
2023-02-26T12:31:30.168Z,55.56
2023-02-26T12:34:25.241Z,55.52
2023-02-26T12:37:10.118Z,55.39
2023-02-26T12:39:50.612Z,55.15
2023-02-26T12:42:30.886Z,54.89
2023-02-26T12:45:13.942Z,55.03
2023-02-26T12:48:18.832Z,55.10
2023-02-26T12:51:15.723Z,54.94
2023-02-26T12:53:43.908Z,54.88
2023-02-26T12:56:21.571Z,55.02
2023-02-26T12:59:01.938Z,55.10
2023-02-26T13:01:35.008Z,55.19
2023-02-26T13:04:29.558Z,55.11
2023-02-26T13:07:10.570Z,54.95
2023-02-26T13:10:17.479Z,54.88
2023-02-26T13:12:55.309Z,55.08
2023-02-26T13:15:38.920Z,55.00
2023-02-26T13:18:26.719Z,54.94
2023-02-26T13:21:00.842Z,54.80
2023-02-26T13:23:53.370Z,54.82
2023-02-26T13:26:22.688Z,54.73
2023-02-26T13:28:57.358Z,54.84
2023-02-26T13:31:37.429Z,55.00
2023-02-26T13:34:11.563Z,55.05
2023-02-26T13:36:40.999Z,54.93
2023-02-26T13:39:34.119Z,54.98
2023-02-26T13:42:24.382Z,55.04
2023-02-26T13:45:14.843Z,55.13
2023-02-26T13:48:09.407Z,54.93
2023-02-26T13:50:53.698Z,54.94
2023-02-26T13:53:28.272Z,54.98
2023-02-26T13:56:06.963Z,55.06
2023-02-26T13:58:43.496Z,55.18
2023-02-26T14:01:16.245Z,55.23
2023-02-26T14:04:08.779Z,55.29
2023-02-26T14:06:47.656Z,55.28
2023-02-26T14:09:22.540Z,55.16
2023-02-26T14:12:03.930Z,55.06
2023-02-26T14:15:07.956Z,54.93
2023-02-26T14:17:48.248Z,54.66
2023-02-26T14:20:25.779Z,54.63
2023-02-26T14:22:59.830Z,54.69
2023-02-26T14:25:33.243Z,54.87
2023-02-26T14:28:34.253Z,55.09
2023-02-26T14:31:14.094Z,55.22
2023-02-26T14:33:59.435Z,55.21
2023-02-26T14:36:39.154Z,55.19
2023-02-26T14:39:16.669Z,55.35
2023-02-26T14:41:45.062Z,55.43
2023-02-26T14:44:21.098Z,55.49
2023-02-26T14:46:51.656Z,55.59
2023-02-26T14:49:40.657Z,55.63
2023-02-26T14:52:54.261Z,55.48
2023-02-26T14:55:29.062Z,55.38
2023-02-26T14:58:20.685Z,55.37
2023-02-26T15:01:22.858Z,55.29
2023-02-26T15:04:22.955Z,55.46
2023-02-26T15:07:09.285Z,55.45
2023-02-26T15:09:41.879Z,55.49
2023-02-26T15:12:28.476Z,55.60
2023-02-26T15:15:03.265Z,55.68
2023-02-26T15:17:31.438Z,55.79
2023-02-26T15:20:38.970Z,55.85
2023-02-26T15:23:31.065Z,55.98
2023-02-26T15:25:59.322Z,56.15
2023-02-26T15:28:38.035Z,56.34
2023-02-26T15:31:07.949Z,56.45
2023-02-26T15:33:36.310Z,56.58
2023-02-26T15:36:07.638Z,56.72
2023-02-26T15:38:50.423Z,56.95
2023-02-26T15:41:18.815Z,57.08
2023-02-26T15:43:52.877Z,57.24
2023-02-26T15:46:22.471Z,57.34
2023-02-26T15:48:50.683Z,57.35
2023-02-26T15:51:22.225Z,57.28
2023-02-26T15:53:51.781Z,57.30
2023-02-26T15:56:23.206Z,57.39
2023-02-26T15:58:57.624Z,57.38
2023-02-26T16:01:27.457Z,57.56
2023-02-26T16:04:07.374Z,57.86
2023-02-26T16:06:41.298Z,58.00
2023-02-26T16:09:19.144Z,58.08
2023-02-26T16:11:50.910Z,58.13
2023-02-26T16:14:24.557Z,58.19
2023-02-26T16:16:54.469Z,58.26
2023-02-26T16:19:49.055Z,58.26
2023-02-26T16:22:40.611Z,58.28
2023-02-26T16:25:36.982Z,58.47
2023-02-26T16:28:21.443Z,58.58
2023-02-26T16:30:54.303Z,58.66
2023-02-26T16:33:25.245Z,58.83
2023-02-26T16:36:10.470Z,58.96
2023-02-26T16:38:49.655Z,59.09
2023-02-26T16:41:26.938Z,59.25
2023-02-26T16:43:58.052Z,59.30
2023-02-26T16:46:45.292Z,59.39
2023-02-26T16:49:17.326Z,59.44
2023-02-26T16:51:45.912Z,59.61
2023-02-26T16:54:27.189Z,59.73
2023-02-26T16:57:28.580Z,59.82
2023-02-26T16:59:58.799Z,59.89
2023-02-26T17:02:29.611Z,59.94
2023-02-26T17:04:59.955Z,60.04
2023-02-26T17:07:33.830Z,59.92
2023-02-26T17:10:21.494Z,59.83
2023-02-26T17:12:51.658Z,59.72
2023-02-26T17:15:36.614Z,59.76
2023-02-26T17:18:09.294Z,59.80
2023-02-26T17:20:37.636Z,59.78
2023-02-26T17:23:08.918Z,59.77
2023-02-26T17:25:39.904Z,59.79
2023-02-26T17:28:08.511Z,59.76
2023-02-26T17:30:36.814Z,59.82
2023-02-26T17:33:07.957Z,59.79
2023-02-26T17:35:36.179Z,59.83
2023-02-26T17:38:05.839Z,59.87
2023-02-26T17:40:36.687Z,59.89
2023-02-26T17:43:06.092Z,59.86
2023-02-26T17:45:34.843Z,59.89
2023-02-26T17:48:03.396Z,59.85
2023-02-26T17:50:44.064Z,59.87
2023-02-26T17:53:12.928Z,59.89
2023-02-26T17:55:41.117Z,59.83
2023-02-26T17:58:38.677Z,59.79
2023-02-26T18:01:08.006Z,59.68
2023-02-26T18:03:39.993Z,60.39
2023-02-26T18:06:11.702Z,59.76
2023-02-26T18:08:40.898Z,59.70
2023-02-26T18:11:11.933Z,59.70
2023-02-26T18:13:40.881Z,59.62
2023-02-26T18:16:21.619Z,59.69
2023-02-26T18:18:50.934Z,59.85
2023-02-26T18:21:20.622Z,59.84
2023-02-26T18:23:48.773Z,59.79
2023-02-26T18:26:17.704Z,59.87
2023-02-26T18:28:45.711Z,59.84
2023-02-26T18:31:14.046Z,59.86
2023-02-26T18:33:44.615Z,59.99
2023-02-26T18:36:39.883Z,60.06
2023-02-26T18:39:12.990Z,60.11
2023-02-26T18:41:41.560Z,60.16
2023-02-26T18:44:09.827Z,60.25
2023-02-26T18:46:40.357Z,60.40
2023-02-26T18:49:19.407Z,60.48
2023-02-26T18:51:47.886Z,60.62
2023-02-26T18:54:16.175Z,60.76
2023-02-26T18:56:46.048Z,60.70
2023-02-26T18:59:16.556Z,60.83
2023-02-26T19:01:48.122Z,60.91
2023-02-26T19:04:16.509Z,60.91
2023-02-26T19:06:50.579Z,61.05
2023-02-26T19:09:19.958Z,61.08
2023-02-26T19:11:49.308Z,61.14
2023-02-26T19:14:19.792Z,61.21
2023-02-26T19:16:48.430Z,61.31
2023-02-26T19:19:18.968Z,61.35
2023-02-26T19:21:47.328Z,61.36
2023-02-26T19:24:17.668Z,61.43
2023-02-26T19:26:45.887Z,61.41
2023-02-26T19:29:16.953Z,61.39
2023-02-26T19:31:45.705Z,61.50
2023-02-26T19:34:14.739Z,61.51
2023-02-26T19:36:48.506Z,61.63
2023-02-26T19:39:16.951Z,61.62
2023-02-26T19:41:53.514Z,61.71
2023-02-26T19:44:22.401Z,61.86
2023-02-26T19:46:50.671Z,61.86
2023-02-26T19:49:19.070Z,61.79
2023-02-26T19:51:47.255Z,61.89
2023-02-26T19:54:15.586Z,61.93
2023-02-26T19:56:43.963Z,61.98
2023-02-26T19:59:12.545Z,61.97
2023-02-26T20:01:41.701Z,62.08
2023-02-26T20:04:11.833Z,62.07
2023-02-26T20:06:41.750Z,62.11
2023-02-26T20:09:17.257Z,62.15
2023-02-26T20:11:47.188Z,62.11
2023-02-26T20:14:15.593Z,62.23
2023-02-26T20:16:44.907Z,62.28
2023-02-26T20:19:14.733Z,62.31
2023-02-26T20:21:45.195Z,62.33
2023-02-26T20:24:15.146Z,62.41
2023-02-26T20:26:45.003Z,62.40
2023-02-26T20:29:18.493Z,62.48
2023-02-26T20:31:49.698Z,62.52
2023-02-26T20:34:20.493Z,62.52
2023-02-26T20:36:50.120Z,62.49
2023-02-26T20:39:21.060Z,62.60
2023-02-26T20:41:50.648Z,62.68
2023-02-26T20:44:18.784Z,62.75
2023-02-26T20:46:48.179Z,62.86
2023-02-26T20:49:17.568Z,62.90
2023-02-26T20:51:46.369Z,62.85
2023-02-26T20:54:15.178Z,62.88
2023-02-26T20:56:44.165Z,62.84
2023-02-26T20:59:12.386Z,62.87
2023-02-26T21:01:42.804Z,62.93
2023-02-26T21:04:11.121Z,63.06
2023-02-26T21:06:40.464Z,63.12
2023-02-26T21:09:11.369Z,63.21
2023-02-26T21:11:39.467Z,63.28
2023-02-26T21:14:09.045Z,63.42
2023-02-26T21:16:40.728Z,63.45
2023-02-26T21:19:08.937Z,63.61
2023-02-26T21:21:38.523Z,63.68
2023-02-26T21:24:06.896Z,63.85
2023-02-26T21:26:35.971Z,63.85
2023-02-26T21:29:05.006Z,63.89
2023-02-26T21:31:36.382Z,63.95
2023-02-26T21:34:29.934Z,64.05
2023-02-26T21:36:56.394Z,64.15
2023-02-26T21:39:25.079Z,64.17
2023-02-26T21:41:53.163Z,64.15
2023-02-26T21:44:21.319Z,64.19
2023-02-26T21:46:49.614Z,64.32
2023-02-26T21:49:17.609Z,64.33
2023-02-26T21:51:45.673Z,64.33
2023-02-26T21:54:14.557Z,64.29
2023-02-26T21:56:42.781Z,64.28
2023-02-26T21:59:11.559Z,64.40
2023-02-26T22:01:40.855Z,64.74
2023-02-26T22:04:12.168Z,65.03
2023-02-26T22:06:42.421Z,65.17
2023-02-26T22:09:11.117Z,65.14
2023-02-26T22:11:42.102Z,65.20
2023-02-26T22:14:10.587Z,65.43
2023-02-26T22:16:38.705Z,65.60
2023-02-26T22:19:07.325Z,65.64
2023-02-26T22:21:35.415Z,65.95
2023-02-26T22:24:04.032Z,66.11
2023-02-26T22:26:32.306Z,66.16
2023-02-26T22:29:00.944Z,66.24
2023-02-26T22:31:30.098Z,66.31
2023-02-26T22:33:59.217Z,66.35
2023-02-26T22:36:30.357Z,66.42
2023-02-26T22:38:58.499Z,66.48
2023-02-26T22:41:26.673Z,66.48
2023-02-26T22:43:55.716Z,66.62
2023-02-26T22:46:25.695Z,66.60
2023-02-26T22:48:55.248Z,66.55
2023-02-26T22:51:24.566Z,66.50
2023-02-26T22:53:53.086Z,66.43
2023-02-26T22:56:21.326Z,66.28
2023-02-26T22:58:49.452Z,66.26
2023-02-26T23:01:17.744Z,66.22
2023-02-26T23:03:46.132Z,66.00
2023-02-26T23:06:14.784Z,66.10
2023-02-26T23:08:42.976Z,66.03
2023-02-26T23:11:11.046Z,65.77
2023-02-26T23:13:42.456Z,65.79
2023-02-26T23:16:30.530Z,65.72
2023-02-26T23:19:02.880Z,65.76
2023-02-26T23:21:32.444Z,65.68
2023-02-26T23:24:00.712Z,65.31
2023-02-26T23:26:28.931Z,65.35
2023-02-26T23:28:56.980Z,65.38
2023-02-26T23:31:25.789Z,65.26
2023-02-26T23:33:54.169Z,65.00
2023-02-26T23:36:22.905Z,64.59
2023-02-26T23:38:51.226Z,64.22
2023-02-26T23:41:20.056Z,63.57
2023-02-26T23:43:48.893Z,63.06
2023-02-26T23:46:19.672Z,62.31
2023-02-26T23:48:51.176Z,61.69
2023-02-26T23:51:19.409Z,61.38
2023-02-26T23:53:47.787Z,60.89
2023-02-26T23:56:16.288Z,60.64
2023-02-26T23:58:44.664Z,60.40
